Time;durP1;ratioP1;P1;durP2;ratioP2;P2;SDS_P1;SDS_P2;PMS_P1;PMS_P2;Temp;Humidity;BMP_temperature;BMP_pressure;BME280_temperature;BME280_humidity;BME280_pressure;Samples;Min_cycle;Max_cycle;Signal;HPM_P1;HPM_P2
2023/01/20 00:00:44;;;;;;;14.77;7.25;;;;;;;;;;5024731;28;20026;-58
2023/01/20 00:03:09;;;;;;;17.50;7.00;;;;;;;;;;5026053;28;20091;-59
2023/01/20 00:05:34;;;;;;;18.15;8.00;;;;;;;;;;5024226;28;20410;-60
2023/01/20 00:08:00;;;;;;;15.98;7.75;;;;;;;;;;5029034;28;20018;-60
2023/01/20 00:10:25;;;;;;;15.30;7.33;;;;;;;;;;5028367;28;20037;-60
2023/01/20 00:12:50;;;;;;;14.32;6.70;;;;;;;;;;5028020;28;20063;-60
2023/01/20 00:15:15;;;;;;;16.45;6.88;;;;;;;;;;5028799;28;20037;-60
2023/01/20 00:17:40;;;;;;;17.10;7.57;;;;;;;;;;5015208;28;20021;-58
2023/01/20 00:20:06;;;;;;;16.63;7.70;;;;;;;;;;5027330;28;20025;-60
2023/01/20 00:22:31;;;;;;;15.57;7.50;;;;;;;;;;5029123;28;20018;-60
2023/01/20 00:24:56;;;;;;;15.32;7.40;;;;;;;;;;5032979;28;20451;-60
2023/01/20 00:27:21;;;;;;;14.70;7.38;;;;;;;;;;5032678;28;20331;-58
2023/01/20 00:29:47;;;;;;;13.25;6.60;;;;;;;;;;5030996;28;20021;-58
2023/01/20 00:32:12;;;;;;;17.13;7.60;;;;;;;;;;5032343;28;20024;-60
2023/01/20 00:34:37;;;;;;;17.13;7.43;;;;;;;;;;5025221;28;20457;-60
2023/01/20 00:37:02;;;;;;;15.20;7.53;;;;;;;;;;5032312;28;20029;-60
2023/01/20 00:39:27;;;;;;;15.60;7.43;;;;;;;;;;5031160;28;20017;-59
2023/01/20 00:41:52;;;;;;;14.32;7.05;;;;;;;;;;5032255;28;20095;-59
2023/01/20 00:44:17;;;;;;;15.00;7.40;;;;;;;;;;5028871;28;20018;-58
2023/01/20 00:46:43;;;;;;;14.90;7.15;;;;;;;;;;5026601;28;20014;-60
2023/01/20 00:49:08;;;;;;;16.77;7.30;;;;;;;;;;5031633;28;20033;-58
2023/01/20 00:51:33;;;;;;;15.68;7.15;;;;;;;;;;5031990;28;20041;-59
2023/01/20 00:53:58;;;;;;;20.30;7.93;;;;;;;;;;5027163;28;20481;-59
2023/01/20 00:56:25;;;;;;;15.93;7.32;;;;;;;;;;5023307;28;20073;-57
2023/01/20 00:58:50;;;;;;;14.75;7.20;;;;;;;;;;5031530;28;20033;-58
2023/01/20 01:01:15;;;;;;;15.60;7.07;;;;;;;;;;5028763;28;20029;-58
2023/01/20 01:03:40;;;;;;;15.25;7.20;;;;;;;;;;5029494;28;20059;-60
2023/01/20 01:06:07;;;;;;;14.27;6.57;;;;;;;;;;5030992;28;20029;-58
2023/01/20 01:08:32;;;;;;;16.08;6.93;;;;;;;;;;5032031;28;20093;-58
2023/01/20 01:10:57;;;;;;;16.95;7.53;;;;;;;;;;5031779;28;20152;-58
2023/01/20 01:13:23;;;;;;;15.48;7.15;;;;;;;;;;5031128;28;20030;-59
2023/01/20 01:15:48;;;;;;;17.30;7.35;;;;;;;;;;5030381;28;20482;-59
2023/01/20 01:18:13;;;;;;;15.05;7.13;;;;;;;;;;5028368;28;20129;-59
2023/01/20 01:20:38;;;;;;;15.05;6.95;;;;;;;;;;5029333;28;20033;-59
2023/01/20 01:23:04;;;;;;;15.02;6.93;;;;;;;;;;5031727;28;20022;-59
2023/01/20 01:25:29;;;;;;;14.63;6.97;;;;;;;;;;5031239;28;20033;-59
2023/01/20 01:27:54;;;;;;;16.10;7.25;;;;;;;;;;5031149;28;20025;-60
2023/01/20 01:30:20;;;;;;;16.27;7.53;;;;;;;;;;5028175;28;20044;-60
2023/01/20 01:32:45;;;;;;;14.93;7.10;;;;;;;;;;5031122;28;20068;-60
2023/01/20 01:35:10;;;;;;;16.50;7.60;;;;;;;;;;5030211;28;20040;-60
2023/01/20 01:37:36;;;;;;;13.80;6.95;;;;;;;;;;5031012;28;20467;-59
2023/01/20 01:40:01;;;;;;;16.53;7.27;;;;;;;;;;5031251;28;20053;-60
2023/01/20 01:42:26;;;;;;;16.03;7.10;;;;;;;;;;5031058;28;20797;-60
2023/01/20 01:45:09;;;;;;;14.90;7.40;;;;;;;;;;5030234;28;20619;-60
2023/01/20 01:47:43;;;;;;;17.10;7.53;;;;;;;;;;5028234;28;20036;-60
2023/01/20 01:50:10;;;;;;;16.30;6.95;;;;;;;;;;5030357;28;20067;-59
2023/01/20 01:52:35;;;;;;;;;;;;;;;;;;5031976;28;20098;-59
2023/01/20 01:55:01;;;;;;;16.23;6.93;;;;;;;;;;5028768;28;19924;-60
2023/01/20 01:57:27;;;;;;;16.55;7.43;;;;;;;;;;5031538;28;20024;-60
2023/01/20 01:59:52;;;;;;;16.17;7.07;;;;;;;;;;5030184;28;20021;-60
2023/01/20 02:02:18;;;;;;;14.70;7.07;;;;;;;;;;5028896;28;20108;-59
2023/01/20 02:04:43;;;;;;;15.95;7.47;;;;;;;;;;5029835;28;20017;-60
2023/01/20 02:07:10;;;;;;;16.13;7.43;;;;;;;;;;5030140;28;20078;-59
2023/01/20 02:09:36;;;;;;;15.95;7.28;;;;;;;;;;5025753;28;20036;-60
2023/01/20 02:12:04;;;;;;;17.00;7.38;;;;;;;;;;5021394;28;20022;-60
2023/01/20 02:14:40;;;;;;;17.50;7.38;;;;;;;;;;5020393;28;20048;-60
2023/01/20 02:17:08;;;;;;;14.48;6.57;;;;;;;;;;5029893;28;20037;-60
2023/01/20 02:19:53;;;;;;;14.88;7.03;;;;;;;;;;5026394;28;20030;-60
2023/01/20 02:22:37;;;;;;;17.48;7.47;;;;;;;;;;5029408;28;20084;-59
2023/01/20 02:25:08;;;;;;;14.27;6.85;;;;;;;;;;5029868;28;20026;-60
2023/01/20 02:27:53;;;;;;;15.52;7.30;;;;;;;;;;5031097;28;20025;-60
2023/01/20 02:30:27;;;;;;;16.95;7.32;;;;;;;;;;5028174;28;20504;-60
2023/01/20 02:32:56;;;;;;;18.67;7.65;;;;;;;;;;5027164;28;20029;-59
2023/01/20 02:35:40;;;;;;;15.48;7.07;;;;;;;;;;5027234;28;20029;-60
2023/01/20 02:38:10;;;;;;;15.52;7.25;;;;;;;;;;5029786;28;20029;-59
2023/01/20 02:40:45;;;;;;;14.75;7.30;;;;;;;;;;5020946;28;20021;-60
2023/01/20 02:43:16;;;;;;;16.90;8.05;;;;;;;;;;5029771;28;20041;-59
2023/01/20 02:45:43;;;;;;;18.45;8.38;;;;;;;;;;5028285;28;20036;-60
2023/01/20 02:48:25;;;;;;;15.30;7.55;;;;;;;;;;5030282;28;20029;-59
2023/01/20 02:50:55;;;;;;;16.15;7.25;;;;;;;;;;5028951;28;20071;-59
2023/01/20 02:53:20;;;;;;;17.33;7.53;;;;;;;;;;5027099;28;20429;-59
2023/01/20 02:55:46;;;;;;;16.80;7.82;;;;;;;;;;5029519;28;20029;-66
2023/01/20 02:58:22;;;;;;;15.27;7.47;;;;;;;;;;5028941;28;20524;-59
2023/01/20 03:00:49;;;;;;;15.32;7.30;;;;;;;;;;5027384;28;20373;-60
2023/01/20 03:03:17;;;;;;;14.27;6.75;;;;;;;;;;5027535;28;20522;-60
2023/01/20 03:05:46;;;;;;;16.30;8.30;;;;;;;;;;5029345;28;20025;-60
2023/01/20 03:08:13;;;;;;;15.10;7.30;;;;;;;;;;5030394;28;20517;-60
2023/01/20 03:10:38;;;;;;;;;;;;;;;;;;5031260;28;20045;-62
2023/01/20 03:13:09;;;;;;;14.05;7.15;;;;;;;;;;5022048;28;19910;-60
2023/01/20 03:15:37;;;;;;;17.08;8.20;;;;;;;;;;5020263;28;20128;-60
2023/01/20 03:18:02;;;;;;;17.02;8.55;;;;;;;;;;5030017;28;20380;-60
2023/01/20 03:20:27;;;;;;;17.10;8.10;;;;;;;;;;5029490;28;20109;-60
2023/01/20 03:22:53;;;;;;;17.08;7.82;;;;;;;;;;5030096;28;20029;-60
2023/01/20 03:25:18;;;;;;;15.57;7.27;;;;;;;;;;5024734;28;20022;-60
2023/01/20 03:27:44;;;;;;;20.42;8.93;;;;;;;;;;5028891;28;20021;-60
2023/01/20 03:30:13;;;;;;;19.57;9.27;;;;;;;;;;5019899;28;20492;-60
2023/01/20 03:32:38;;;;;;;17.67;8.02;;;;;;;;;;5027843;28;20032;-60
2023/01/20 03:35:03;;;;;;;19.42;8.57;;;;;;;;;;5026646;28;20171;-60
2023/01/20 03:37:29;;;;;;;18.90;9.13;;;;;;;;;;5029280;28;20394;-61
2023/01/20 03:39:55;;;;;;;18.50;8.57;;;;;;;;;;5029160;28;20037;-60
2023/01/20 03:42:25;;;;;;;20.52;10.65;;;;;;;;;;5029522;28;20413;-60
2023/01/20 03:44:56;;;;;;;17.58;8.38;;;;;;;;;;5029562;28;20060;-60
2023/01/20 03:47:36;;;;;;;17.05;7.95;;;;;;;;;;5025169;28;20851;-60
2023/01/20 03:50:20;;;;;;;18.05;8.55;;;;;;;;;;5026869;28;20029;-60
2023/01/20 03:52:58;;;;;;;21.20;10.30;;;;;;;;;;5029326;28;20029;-60
2023/01/20 03:55:27;;;;;;;18.38;9.45;;;;;;;;;;5026835;28;20037;-60
2023/01/20 03:58:02;;;;;;;17.95;8.48;;;;;;;;;;5033139;28;20021;-60
2023/01/20 04:00:28;;;;;;;19.98;9.63;;;;;;;;;;5032199;28;20037;-60
2023/01/20 04:02:54;;;;;;;24.23;10.93;;;;;;;;;;5032242;28;20025;-60
2023/01/20 04:05:20;;;;;;;23.67;10.95;;;;;;;;;;5029274;28;20025;-60
2023/01/20 04:07:45;;;;;;;25.08;10.98;;;;;;;;;;5006753;28;20108;-60
2023/01/20 04:10:13;;;;;;;22.23;10.93;;;;;;;;;;5032794;28;20040;-60
2023/01/20 04:12:38;;;;;;;23.33;9.85;;;;;;;;;;5032875;28;20017;-60
2023/01/20 04:15:05;;;;;;;23.37;10.33;;;;;;;;;;5027978;28;20029;-60
2023/01/20 04:17:30;;;;;;;20.92;9.73;;;;;;;;;;5023531;28;20112;-59
2023/01/20 04:19:56;;;;;;;21.92;10.55;;;;;;;;;;5026220;28;20104;-60
2023/01/20 04:22:30;;;;;;;25.98;10.93;;;;;;;;;;5031688;28;20115;-60
2023/01/20 04:25:02;;;;;;;25.52;11.73;;;;;;;;;;5028284;28;20022;-59
2023/01/20 04:27:27;;;;;;;25.65;10.90;;;;;;;;;;5022963;28;20017;-59
2023/01/20 04:29:52;;;;;;;23.60;11.32;;;;;;;;;;5028917;28;20531;-60
2023/01/20 04:32:18;;;;;;;22.48;10.75;;;;;;;;;;5026882;28;20051;-59
2023/01/20 04:34:43;;;;;;;23.55;10.30;;;;;;;;;;5021949;28;20026;-60
2023/01/20 04:37:08;;;;;;;22.02;10.25;;;;;;;;;;5029451;28;20025;-60
2023/01/20 04:39:33;;;;;;;25.05;10.45;;;;;;;;;;5032499;28;20502;-60
2023/01/20 04:41:58;;;;;;;21.52;9.30;;;;;;;;;;5028580;28;20032;-59
2023/01/20 04:44:23;;;;;;;23.63;10.98;;;;;;;;;;5032675;28;20032;-61
2023/01/20 04:46:49;;;;;;;21.97;10.07;;;;;;;;;;5031370;28;20355;-59
2023/01/20 04:49:14;;;;;;;18.77;9.35;;;;;;;;;;5032071;28;20109;-59
2023/01/20 04:51:39;;;;;;;21.85;10.95;;;;;;;;;;5032107;28;20033;-59
2023/01/20 04:54:05;;;;;;;25.42;11.90;;;;;;;;;;5030709;28;20135;-60
2023/01/20 04:56:30;;;;;;;24.40;10.77;;;;;;;;;;5028756;28;20445;-59
2023/01/20 04:58:55;;;;;;;24.27;11.48;;;;;;;;;;5031080;28;20056;-59
2023/01/20 05:01:20;;;;;;;24.23;10.80;;;;;;;;;;5031471;28;20025;-59
2023/01/20 05:03:46;;;;;;;22.25;10.50;;;;;;;;;;5030985;28;20025;-60
2023/01/20 05:06:11;;;;;;;23.63;9.97;;;;;;;;;;5031877;28;20454;-59
2023/01/20 05:08:36;;;;;;;24.33;10.68;;;;;;;;;;5029243;28;20022;-59
2023/01/20 05:11:01;;;;;;;23.83;11.13;;;;;;;;;;5031212;28;20630;-59
2023/01/20 05:13:27;;;;;;;21.13;10.18;;;;;;;;;;5030440;28;20068;-59
2023/01/20 05:15:52;;;;;;;21.60;10.43;;;;;;;;;;5030257;28;20044;-58
2023/01/20 05:18:17;;;;;;;23.17;10.43;;;;;;;;;;5030293;28;20385;-59
2023/01/20 05:20:46;;;;;;;25.90;11.67;;;;;;;;;;5030340;28;20156;-58
2023/01/20 05:23:11;;;;;;;22.88;10.93;;;;;;;;;;5025339;28;20067;-59
2023/01/20 05:25:36;;;;;;;20.80;9.87;;;;;;;;;;5025685;28;20029;-58
2023/01/20 05:28:01;;;;;;;24.65;10.77;;;;;;;;;;5029242;28;20033;-58
2023/01/20 05:30:27;;;;;;;21.97;10.07;;;;;;;;;;5030690;28;20044;-59
2023/01/20 05:32:52;;;;;;;23.47;10.53;;;;;;;;;;5031175;28;20040;-58
2023/01/20 05:35:17;;;;;;;23.47;10.53;;;;;;;;;;5023744;28;20492;-58
2023/01/20 05:37:43;;;;;;;26.30;11.55;;;;;;;;;;5027936;28;20032;-60
2023/01/20 05:40:09;;;;;;;23.65;11.27;;;;;;;;;;5027198;28;20036;-57
2023/01/20 05:42:34;;;;;;;23.13;10.88;;;;;;;;;;5021910;28;20356;-57
2023/01/20 05:44:59;;;;;;;24.53;11.70;;;;;;;;;;5024722;28;20099;-60
2023/01/20 05:47:24;;;;;;;27.77;11.20;;;;;;;;;;5025044;28;20037;-60
2023/01/20 05:49:49;;;;;;;29.88;11.45;;;;;;;;;;5025967;28;20048;-60
2023/01/20 05:52:14;;;;;;;24.30;10.87;;;;;;;;;;5027500;28;20041;-58
2023/01/20 05:54:39;;;;;;;25.40;11.50;;;;;;;;;;5026477;28;20346;-59
2023/01/20 05:57:05;;;;;;;23.37;10.90;;;;;;;;;;5027342;28;20483;-57
2023/01/20 05:59:30;;;;;;;21.58;10.27;;;;;;;;;;5026001;28;20033;-57
2023/01/20 06:01:55;;;;;;;27.47;11.80;;;;;;;;;;5026377;28;20033;-57
2023/01/20 06:04:20;;;;;;;27.00;12.20;;;;;;;;;;5027035;28;20087;-57
2023/01/20 06:06:45;;;;;;;21.88;10.95;;;;;;;;;;5027869;28;20053;-57
2023/01/20 06:09:11;;;;;;;22.20;11.05;;;;;;;;;;5025983;28;20033;-57
2023/01/20 06:11:36;;;;;;;26.03;12.03;;;;;;;;;;5025331;28;20060;-57
2023/01/20 06:14:01;;;;;;;28.00;13.13;;;;;;;;;;5026989;28;20389;-57
2023/01/20 06:16:26;;;;;;;24.43;11.23;;;;;;;;;;5026948;28;20040;-60
2023/01/20 06:18:51;;;;;;;32.70;12.83;;;;;;;;;;5029876;28;20030;-59
2023/01/20 06:21:16;;;;;;;27.20;13.13;;;;;;;;;;5010914;28;20430;-59
2023/01/20 06:23:41;;;;;;;24.40;12.13;;;;;;;;;;5027204;28;20029;-59
2023/01/20 06:26:09;;;;;;;27.25;12.07;;;;;;;;;;5030629;28;20382;-59
2023/01/20 06:28:34;;;;;;;26.15;12.77;;;;;;;;;;5031484;28;20021;-59
2023/01/20 06:31:18;;;;;;;26.73;11.60;;;;;;;;;;5031368;28;20034;-59
2023/01/20 06:33:43;;;;;;;24.05;11.20;;;;;;;;;;5024442;28;20029;-60
2023/01/20 06:36:09;;;;;;;26.73;12.03;;;;;;;;;;5018035;28;20025;-59
2023/01/20 06:38:35;;;;;;;24.20;10.93;;;;;;;;;;5011738;28;20160;-59
2023/01/20 06:41:01;;;;;;;26.92;12.43;;;;;;;;;;5022695;28;20056;-59
2023/01/20 06:43:28;;;;;;;27.73;12.40;;;;;;;;;;5030749;28;20097;-59
2023/01/20 06:45:56;;;;;;;29.55;13.45;;;;;;;;;;5030752;28;20021;-59
2023/01/20 06:48:22;;;;;;;32.20;13.05;;;;;;;;;;5026748;28;21305;-60
2023/01/20 06:50:47;;;;;;;23.55;11.00;;;;;;;;;;5024310;28;20135;-60
2023/01/20 06:53:12;;;;;;;26.60;10.85;;;;;;;;;;5026260;28;20052;-58
2023/01/20 06:55:37;;;;;;;27.02;12.68;;;;;;;;;;5029010;28;20038;-58
2023/01/20 06:58:02;;;;;;;30.70;13.57;;;;;;;;;;5029552;28;20057;-61
2023/01/20 07:00:27;;;;;;;28.02;12.60;;;;;;;;;;5028780;28;20029;-59
2023/01/20 07:02:52;;;;;;;28.43;13.30;;;;;;;;;;5030675;28;20106;-60
2023/01/20 07:05:18;;;;;;;28.27;13.02;;;;;;;;;;5011834;28;20032;-60
2023/01/20 07:07:44;;;;;;;28.43;12.77;;;;;;;;;;5024820;28;20037;-59
2023/01/20 07:10:09;;;;;;;26.95;12.45;;;;;;;;;;5028805;28;20052;-60
2023/01/20 07:12:35;;;;;;;25.60;11.85;;;;;;;;;;5029478;28;20041;-60
2023/01/20 07:15:00;;;;;;;25.95;12.23;;;;;;;;;;5028147;28;20029;-59
2023/01/20 07:17:25;;;;;;;23.77;11.38;;;;;;;;;;5034334;28;20033;-59
2023/01/20 07:19:50;;;;;;;24.98;11.30;;;;;;;;;;5029056;28;20502;-60
2023/01/20 07:22:15;;;;;;;30.20;14.00;;;;;;;;;;5030308;28;20033;-58
2023/01/20 07:24:40;;;;;;;24.15;11.85;;;;;;;;;;5030456;28;20095;-58
2023/01/20 07:27:05;;;;;;;26.30;11.27;;;;;;;;;;5030236;28;20025;-60
2023/01/20 07:29:31;;;;;;;26.97;12.70;;;;;;;;;;5025698;28;20013;-59
2023/01/20 07:31:56;;;;;;;26.33;12.83;;;;;;;;;;5026046;28;20374;-58
2023/01/20 07:34:21;;;;;;;28.17;13.53;;;;;;;;;;5012218;28;20028;-60
2023/01/20 07:36:46;;;;;;;25.02;11.82;;;;;;;;;;5030650;28;20103;-58
2023/01/20 07:39:11;;;;;;;30.85;12.98;;;;;;;;;;5028993;28;20025;-58
2023/01/20 07:41:37;;;;;;;27.73;11.82;;;;;;;;;;5028535;28;20121;-60
2023/01/20 07:44:02;;;;;;;31.85;12.48;;;;;;;;;;5028585;28;20025;-58
2023/01/20 07:46:27;;;;;;;31.27;13.05;;;;;;;;;;5030644;28;20017;-58
2023/01/20 07:48:52;;;;;;;24.02;11.27;;;;;;;;;;5032543;28;20025;-58
2023/01/20 07:51:17;;;;;;;24.77;11.00;;;;;;;;;;5035947;28;20021;-58
2023/01/20 07:53:46;;;;;;;24.27;11.02;;;;;;;;;;5036747;28;20028;-60
2023/01/20 07:56:16;;;;;;;25.77;11.65;;;;;;;;;;5026482;28;20490;-60
2023/01/20 07:58:44;;;;;;;28.83;11.82;;;;;;;;;;5030754;28;20064;-60
2023/01/20 08:01:13;;;;;;;23.77;11.02;;;;;;;;;;5031775;28;20092;-60
2023/01/20 08:03:38;;;;;;;24.50;10.02;;;;;;;;;;5032528;28;20017;-60
2023/01/20 08:06:04;;;;;;;28.07;10.67;;;;;;;;;;5031783;28;20036;-60
2023/01/20 08:08:31;;;;;;;23.70;10.88;;;;;;;;;;5033745;28;20557;-58
2023/01/20 08:10:57;;;;;;;24.95;10.23;;;;;;;;;;5028446;28;20025;-59
2023/01/20 08:13:22;;;;;;;24.08;10.85;;;;;;;;;;5033230;28;20414;-59
2023/01/20 08:15:47;;;;;;;22.40;9.70;;;;;;;;;;5033523;28;20087;-58
2023/01/20 08:18:12;;;;;;;24.17;10.57;;;;;;;;;;5032997;28;20063;-59
2023/01/20 08:20:40;;;;;;;21.95;10.07;;;;;;;;;;5031779;28;20025;-59
2023/01/20 08:23:06;;;;;;;27.27;11.10;;;;;;;;;;5024995;28;20068;-59
2023/01/20 08:25:31;;;;;;;30.30;11.45;;;;;;;;;;5033047;28;20021;-59
2023/01/20 08:27:56;;;;;;;22.83;10.10;;;;;;;;;;5031984;28;20463;-59
2023/01/20 08:30:21;;;;;;;25.80;11.07;;;;;;;;;;5031824;28;20502;-60
2023/01/20 08:32:46;;;;;;;24.77;10.98;;;;;;;;;;5031586;28;20025;-58
2023/01/20 08:35:11;;;;;;;27.35;11.18;;;;;;;;;;5032221;28;20538;-59
2023/01/20 08:37:37;;;;;;;26.03;10.73;;;;;;;;;;5033795;28;20018;-59
2023/01/20 08:40:03;;;;;;;29.23;11.25;;;;;;;;;;5032470;28;20024;-59
2023/01/20 08:42:28;;;;;;;26.85;11.27;;;;;;;;;;5032935;28;20071;-59
2023/01/20 08:44:53;;;;;;;28.15;10.88;;;;;;;;;;5032072;28;20025;-59
2023/01/20 08:47:19;;;;;;;24.02;9.73;;;;;;;;;;5030112;28;20029;-60
2023/01/20 08:49:44;;;;;;;30.23;11.60;;;;;;;;;;5026826;28;20033;-60
2023/01/20 08:52:09;;;;;;;25.17;10.90;;;;;;;;;;5033766;28;20021;-61
2023/01/20 08:54:34;;;;;;;25.48;10.77;;;;;;;;;;5033313;28;20022;-60
2023/01/20 08:56:59;;;;;;;25.67;10.60;;;;;;;;;;5032581;28;20194;-61
2023/01/20 08:59:25;;;;;;;27.23;11.07;;;;;;;;;;5032978;28;20037;-59
2023/01/20 09:01:50;;;;;;;27.80;10.67;;;;;;;;;;5031868;28;20021;-59
2023/01/20 09:04:15;;;;;;;28.45;11.20;;;;;;;;;;5032419;28;20022;-58
2023/01/20 09:06:41;;;;;;;26.75;10.45;;;;;;;;;;5032628;28;20097;-60
2023/01/20 09:09:07;;;;;;;24.65;10.93;;;;;;;;;;5032461;28;20110;-60
2023/01/20 09:11:32;;;;;;;26.50;10.17;;;;;;;;;;5031412;28;20114;-61
2023/01/20 09:13:57;;;;;;;26.70;10.97;;;;;;;;;;5030839;28;20976;-60
2023/01/20 09:16:22;;;;;;;24.60;11.37;;;;;;;;;;5032310;28;20091;-60
2023/01/20 09:18:47;;;;;;;24.10;9.97;;;;;;;;;;5033160;28;20021;-60
2023/01/20 09:21:12;;;;;;;26.55;10.70;;;;;;;;;;5032978;28;20056;-60
2023/01/20 09:23:39;;;;;;;27.37;10.83;;;;;;;;;;5032451;28;20394;-61
2023/01/20 09:26:05;;;;;;;28.48;11.45;;;;;;;;;;5031830;28;20390;-60
2023/01/20 09:28:30;;;;;;;24.55;10.77;;;;;;;;;;5030496;28;20494;-60
2023/01/20 09:30:59;;;;;;;25.30;10.10;;;;;;;;;;5031365;28;20029;-60
2023/01/20 09:33:24;;;;;;;21.88;9.45;;;;;;;;;;5032003;28;20021;-61
2023/01/20 09:35:53;;;;;;;25.67;10.15;;;;;;;;;;5030145;28;20045;-61
2023/01/20 09:43:57;;;;;;;29.45;11.45;;;;;;;;;;5028892;28;20037;-60
2023/01/20 09:46:27;;;;;;;29.20;11.23;;;;;;;;;;5022812;28;20083;-60
2023/01/20 09:54:49;;;;;;;27.20;11.30;;;;;;;;;;5011552;28;20079;-61
2023/01/20 09:57:15;;;;;;;25.92;10.35;;;;;;;;;;5011647;28;20036;-61
2023/01/20 09:59:46;;;;;;;26.65;11.00;;;;;;;;;;5019636;28;20029;-61
2023/01/20 10:02:22;;;;;;;27.23;11.35;;;;;;;;;;5030724;28;20490;-61
2023/01/20 10:04:51;;;;;;;27.98;12.68;;;;;;;;;;5030726;28;20029;-61
2023/01/20 10:07:28;;;;;;;25.00;10.65;;;;;;;;;;5031352;28;20053;-61
2023/01/20 10:09:58;;;;;;;25.75;11.45;;;;;;;;;;5030840;28;20025;-61
2023/01/20 10:12:26;;;;;;;24.70;10.43;;;;;;;;;;5031337;28;20056;-62
2023/01/20 10:14:57;;;;;;;25.00;11.55;;;;;;;;;;5030275;28;20386;-62
2023/01/20 10:17:41;;;;;;;26.67;10.60;;;;;;;;;;5018934;28;20029;-62
2023/01/20 10:20:06;;;;;;;28.73;11.45;;;;;;;;;;5016018;28;20029;-61
2023/01/20 10:22:52;;;;;;;28.13;10.70;;;;;;;;;;5030271;28;20091;-63
2023/01/20 10:25:21;;;;;;;26.52;10.55;;;;;;;;;;5029985;28;20405;-62
2023/01/20 10:28:00;;;;;;;26.83;10.18;;;;;;;;;;5030980;28;20029;-62
2023/01/20 10:30:29;;;;;;;26.65;10.65;;;;;;;;;;5029990;28;20382;-64
2023/01/20 10:33:01;;;;;;;29.95;10.73;;;;;;;;;;5030232;28;20036;-62
2023/01/20 10:35:27;;;;;;;24.48;10.05;;;;;;;;;;5030406;28;20030;-61
2023/01/20 10:37:54;;;;;;;26.27;10.45;;;;;;;;;;5029840;28;20021;-61
2023/01/20 10:40:26;;;;;;;29.17;11.20;;;;;;;;;;5030485;28;20057;-62
2023/01/20 10:42:54;;;;;;;30.75;10.85;;;;;;;;;;5029471;28;20021;-63
2023/01/20 10:45:23;;;;;;;27.83;11.35;;;;;;;;;;5021943;28;20052;-61
2023/01/20 10:48:01;;;;;;;22.92;9.85;;;;;;;;;;5030871;28;20017;-62
2023/01/20 10:50:32;;;;;;;24.20;10.85;;;;;;;;;;5029856;28;20025;-64
2023/01/20 10:53:22;;;;;;;31.05;11.65;;;;;;;;;;5030842;28;20104;-63
2023/01/20 10:56:01;;;;;;;26.77;10.60;;;;;;;;;;5029465;28;20112;-61
2023/01/20 10:58:27;;;;;;;28.48;11.40;;;;;;;;;;5030676;28;20022;-61
2023/01/20 11:00:53;;;;;;;26.33;11.57;;;;;;;;;;5029820;28;20030;-61
2023/01/20 11:03:19;;;;;;;24.10;10.52;;;;;;;;;;5030484;28;20022;-62
2023/01/20 11:05:46;;;;;;;26.27;10.80;;;;;;;;;;5028971;28;20022;-60
2023/01/20 11:08:22;;;;;;;25.73;11.23;;;;;;;;;;5032101;28;20107;-62
2023/01/20 11:10:49;;;;;;;26.02;10.50;;;;;;;;;;5031280;28;20033;-62
2023/01/20 11:13:16;;;;;;;26.40;11.63;;;;;;;;;;5028732;28;20044;-62
2023/01/20 11:15:46;;;;;;;31.55;11.55;;;;;;;;;;5021987;28;20033;-63
2023/01/20 11:18:14;;;;;;;31.73;12.77;;;;;;;;;;5032795;28;20021;-61
2023/01/20 11:20:46;;;;;;;29.95;12.55;;;;;;;;;;5029132;28;20029;-59
2023/01/20 11:23:19;;;;;;;31.40;11.60;;;;;;;;;;5030257;28;20443;-60
2023/01/20 11:25:52;;;;;;;25.75;10.77;;;;;;;;;;5030216;28;20032;-60
2023/01/20 11:28:18;;;;;;;27.67;12.05;;;;;;;;;;5029637;28;20463;-62
2023/01/20 11:30:49;;;;;;;26.88;11.43;;;;;;;;;;5015201;28;20025;-62
2023/01/20 11:33:20;;;;;;;30.77;11.70;;;;;;;;;;5026018;28;20020;-60
2023/01/20 11:36:04;;;;;;;31.27;11.90;;;;;;;;;;5010053;28;20057;-60
2023/01/20 11:38:31;;;;;;;29.88;12.00;;;;;;;;;;5010259;28;20029;-60
2023/01/20 11:40:56;;;;;;;33.03;13.57;;;;;;;;;;5009956;28;20129;-59
2023/01/20 11:43:27;;;;;;;30.90;12.38;;;;;;;;;;5018439;28;20069;-60
2023/01/20 11:46:07;;;;;;;34.55;13.32;;;;;;;;;;5025706;28;20072;-61
2023/01/20 11:48:32;;;;;;;34.95;12.75;;;;;;;;;;5021066;28;20535;-61
2023/01/20 11:51:00;;;;;;;33.58;13.52;;;;;;;;;;5028266;28;20037;-59
2023/01/20 11:53:27;;;;;;;32.45;12.90;;;;;;;;;;5029904;28;20056;-59
2023/01/20 11:55:52;;;;;;;;;;;;;;;;;;5030230;28;20560;-60
2023/01/20 11:58:22;;;;;;;35.13;12.98;;;;;;;;;;5029936;28;20338;-59
2023/01/20 12:00:49;;;;;;;32.65;13.93;;;;;;;;;;5028909;28;20052;-61
2023/01/20 12:03:26;;;;;;;37.72;14.23;;;;;;;;;;5025094;28;20055;-61
2023/01/20 12:05:51;;;;;;;33.40;12.43;;;;;;;;;;5027844;28;20364;-60
2023/01/20 12:08:27;;;;;;;34.45;13.05;;;;;;;;;;5030029;28;20140;-61
2023/01/20 12:10:55;;;;;;;31.13;13.27;;;;;;;;;;5029084;28;20018;-62
2023/01/20 12:13:26;;;;;;;37.38;15.13;;;;;;;;;;5028461;28;20036;-61
2023/01/20 12:15:53;;;;;;;31.65;12.57;;;;;;;;;;5029392;28;20107;-62
2023/01/20 12:18:18;;;;;;;;;;;;;;;;;;5027094;28;20029;-60
2023/01/20 12:20:47;;;;;;;34.13;12.82;;;;;;;;;;5026457;28;19913;-61
2023/01/20 12:23:20;;;;;;;34.97;13.75;;;;;;;;;;5022065;28;20359;-59
2023/01/20 12:25:54;;;;;;;31.90;13.10;;;;;;;;;;5027124;28;20104;-59
2023/01/20 12:28:39;;;;;;;36.55;13.85;;;;;;;;;;5032285;28;20159;-59
2023/01/20 12:31:06;;;;;;;32.60;13.45;;;;;;;;;;5032856;28;20048;-60
2023/01/20 12:33:36;;;;;;;32.42;13.20;;;;;;;;;;5032506;28;20036;-60
2023/01/20 12:36:06;;;;;;;33.95;12.73;;;;;;;;;;5029702;28;20509;-60
2023/01/20 12:38:43;;;;;;;39.60;14.95;;;;;;;;;;5025695;28;20485;-59
2023/01/20 12:41:14;;;;;;;29.00;13.35;;;;;;;;;;5032687;28;20410;-58
2023/01/20 12:44:00;;;;;;;38.20;14.98;;;;;;;;;;5032970;28;20022;-58
2023/01/20 12:46:32;;;;;;;36.33;13.85;;;;;;;;;;5032680;28;20056;-59
2023/01/20 12:49:06;;;;;;;36.67;14.27;;;;;;;;;;5031764;28;20025;-61
2023/01/20 12:51:34;;;;;;;35.53;14.55;;;;;;;;;;5024220;28;20033;-58
2023/01/20 12:53:59;;;;;;;35.95;13.82;;;;;;;;;;5032084;28;20458;-60
2023/01/20 12:56:32;;;;;;;33.22;12.20;;;;;;;;;;5052627;28;20683;-61
2023/01/20 12:59:09;;;;;;;40.05;15.35;;;;;;;;;;5052780;28;20021;-60
2023/01/20 13:01:53;;;;;;;34.78;14.68;;;;;;;;;;5048374;28;20056;-60
2023/01/20 13:04:33;;;;;;;33.20;13.27;;;;;;;;;;5031299;28;20017;-60
2023/01/20 13:07:14;;;;;;;37.38;13.70;;;;;;;;;;5032414;28;20025;-59
2023/01/20 13:09:45;;;;;;;38.60;14.98;;;;;;;;;;5012207;28;20051;-60
2023/01/20 13:12:33;;;;;;;37.28;14.25;;;;;;;;;;5012806;28;20475;-60
2023/01/20 13:15:19;;;;;;;34.50;13.10;;;;;;;;;;5012514;28;20030;-61
2023/01/20 13:18:05;;;;;;;37.15;13.48;;;;;;;;;;5024873;28;20067;-61
2023/01/20 13:20:30;;;;;;;36.17;13.40;;;;;;;;;;5031507;28;20557;-59
2023/01/20 13:22:57;;;;;;;37.57;13.90;;;;;;;;;;5032387;28;20055;-61
2023/01/20 13:25:23;;;;;;;39.38;13.88;;;;;;;;;;5032511;28;20033;-58
2023/01/20 13:27:50;;;;;;;38.22;13.85;;;;;;;;;;5033646;28;20025;-59
2023/01/20 13:30:37;;;;;;;38.00;14.10;;;;;;;;;;5033023;28;20542;-59
2023/01/20 13:33:03;;;;;;;35.97;14.23;;;;;;;;;;5034751;28;20026;-61
2023/01/20 13:35:28;;;;;;;36.63;14.10;;;;;;;;;;5032203;28;20029;-61
2023/01/20 13:37:55;;;;;;;43.63;14.32;;;;;;;;;;5032281;28;20485;-61
2023/01/20 13:40:41;;;;;;;39.70;15.30;;;;;;;;;;5031481;28;20033;-61
2023/01/20 13:43:21;;;;;;;37.28;15.00;;;;;;;;;;5031827;28;20017;-59
2023/01/20 13:45:47;;;;;;;38.97;15.07;;;;;;;;;;5029639;28;20053;-61
2023/01/20 13:48:12;;;;;;;36.50;13.60;;;;;;;;;;5026490;28;20045;-58
2023/01/20 13:50:41;;;;;;;36.97;13.98;;;;;;;;;;5023506;28;20114;-57
2023/01/20 13:53:09;;;;;;;38.50;14.32;;;;;;;;;;5029070;28;20014;-57
2023/01/20 13:55:40;;;;;;;33.75;13.38;;;;;;;;;;5028462;28;20029;-58
2023/01/20 13:58:24;;;;;;;37.63;14.23;;;;;;;;;;5021885;28;20122;-59
2023/01/20 14:00:53;;;;;;;39.90;14.63;;;;;;;;;;5024989;28;20029;-60
2023/01/20 14:03:23;;;;;;;41.10;15.50;;;;;;;;;;5030613;28;20488;-60
2023/01/20 14:05:49;;;;;;;35.97;14.35;;;;;;;;;;5020858;28;20120;-60
2023/01/20 14:08:15;;;;;;;36.60;14.40;;;;;;;;;;5021291;28;20017;-59
2023/01/20 14:10:40;;;;;;;35.25;13.98;;;;;;;;;;5028835;28;20385;-61
2023/01/20 14:13:17;;;;;;;38.33;14.70;;;;;;;;;;5028110;28;20032;-59
2023/01/20 14:15:46;;;;;;;37.92;14.93;;;;;;;;;;5029641;28;20036;-59
2023/01/20 14:18:14;;;;;;;36.97;14.40;;;;;;;;;;5028946;28;20045;-59
2023/01/20 14:20:42;;;;;;;35.08;14.23;;;;;;;;;;5024556;28;20108;-59
2023/01/20 14:23:25;;;;;;;41.47;14.32;;;;;;;;;;5028579;28;20043;-59
2023/01/20 14:26:04;;;;;;;36.35;13.57;;;;;;;;;;5026093;28;20021;-58
2023/01/20 14:28:29;;;;;;;29.85;11.85;;;;;;;;;;5019446;28;20080;-58
2023/01/20 14:31:11;;;;;;;31.08;12.35;;;;;;;;;;5018728;28;20029;-59
2023/01/20 14:33:43;;;;;;;33.05;14.15;;;;;;;;;;5023151;28;20029;-59
2023/01/20 14:36:11;;;;;;;40.28;13.65;;;;;;;;;;5024830;28;20025;-59
2023/01/20 14:38:38;;;;;;;37.47;13.40;;;;;;;;;;5029799;28;20021;-59